Terminal Aerodrome Forecast
Issued by NWS Charleston, WV

Current Version | Previous Version | Graphics & Text | Print | Product List | Glossary On
Versions: 1 2 3 4 5 6 7 8 9 10 11 12 13 14 15 16 17 18 19 20 21
713
FTUS41 KRLX 271120
TAFCRW
TAF
KCRW 271120Z 2712/2812 18007KT P6SM SCT250
     FM271500 19010G22KT P6SM BKN040
     FM271700 19012G24KT P6SM VCTS BKN050CB
      TEMPO 2717/2721 4SM SHRA OVC025
     FM272100 23010G21KT P6SM BKN040
     FM280200 27004KT P6SM SCT050
     FM280800 00000KT 4SM BR SCT200
     FM280900 00000KT 2SM BR SCT001=

USA.gov is the U.S. government's official web portal to all federal, state and local government web resources and services.